createdAt,value
2018-03-22T00:00:14.576Z,46.70
2018-03-22T00:02:43.849Z,47.70
2018-03-22T00:05:14.006Z,48.50
2018-03-22T00:07:43.325Z,49.60
2018-03-22T00:10:13.382Z,52.90
2018-03-22T00:15:19.198Z,53.50
2018-03-22T00:18:01.604Z,54.20
2018-03-22T00:23:20.674Z,58.30
2018-03-22T00:25:50.397Z,58.80
2018-03-22T00:28:25.638Z,58.10
2018-03-22T00:30:56.428Z,58.30
2018-03-22T00:33:27.885Z,58.20
2018-03-22T00:35:58.569Z,59.10
2018-03-22T00:38:30.756Z,60.00
2018-03-22T00:41:05.478Z,60.90
2018-03-22T00:43:37.197Z,61.70
2018-03-22T00:46:18.186Z,62.30
2018-03-22T00:48:49.760Z,62.20
2018-03-22T00:51:20.677Z,61.80
2018-03-22T00:53:49.996Z,61.70
2018-03-22T00:56:20.564Z,62.10
2018-03-22T00:58:50.667Z,62.10
2018-03-22T01:01:26.148Z,62.10
2018-03-22T01:04:05.790Z,62.10
2018-03-22T01:06:41.695Z,62.10
2018-03-22T01:09:11.909Z,62.70
2018-03-22T01:11:45.897Z,62.70
2018-03-22T01:14:17.901Z,63.20
2018-03-22T01:19:26.373Z,64.50
2018-03-22T01:22:00.408Z,64.50
2018-03-22T01:24:30.737Z,65.80
2018-03-22T01:30:38.395Z,66.00
2018-03-22T01:33:13.504Z,66.50
2018-03-22T01:35:49.364Z,67.20
2018-03-22T01:38:19.535Z,67.70
2018-03-22T01:40:50.817Z,67.70
2018-03-22T01:46:43.871Z,68.10
2018-03-22T01:49:15.219Z,68.70
2018-03-22T01:51:49.717Z,69.00
2018-03-22T01:54:23.730Z,69.40
2018-03-22T01:56:54.611Z,70.30
2018-03-22T01:59:24.104Z,70.20
2018-03-22T02:01:54.931Z,70.50
2018-03-22T02:04:52.798Z,70.90
2018-03-22T02:07:26.894Z,71.10
2018-03-22T02:09:56.320Z,71.30
2018-03-22T02:12:25.732Z,71.70
2018-03-22T02:14:55.259Z,71.80
2018-03-22T02:17:24.645Z,72.00
2018-03-22T02:19:54.214Z,72.30
2018-03-22T02:22:25.208Z,72.70
2018-03-22T02:24:58.219Z,73.00
2018-03-22T02:33:03.757Z,73.70
2018-03-22T02:35:34.851Z,73.90
2018-03-22T02:38:05.100Z,74.20
2018-03-22T02:40:34.500Z,74.50
2018-03-22T02:43:10.865Z,74.90
2018-03-22T02:45:46.813Z,75.30
2018-03-22T02:48:16.533Z,76.20
2018-03-22T02:50:47.096Z,76.80
2018-03-22T02:53:18.677Z,77.00
2018-03-22T02:55:48.272Z,77.50
2018-03-22T02:58:18.108Z,77.70
2018-03-22T03:00:52.101Z,78.80
2018-03-22T03:03:22.098Z,78.80
2018-03-22T03:05:51.487Z,79.00
2018-03-22T03:08:21.059Z,79.20
2018-03-22T03:10:53.825Z,79.50
2018-03-22T03:13:23.462Z,79.90
2018-03-22T03:15:52.778Z,80.40
2018-03-22T03:18:23.155Z,80.20
2018-03-22T03:20:53.564Z,80.80
2018-03-22T03:26:43.487Z,81.40
2018-03-22T03:29:13.869Z,81.70
2018-03-22T03:35:06.028Z,82.00
2018-03-22T03:37:37.168Z,82.40
2018-03-22T03:40:20.907Z,82.90
2018-03-22T03:42:55.826Z,83.20
2018-03-22T03:45:27.134Z,84.30
2018-03-22T03:47:56.836Z,84.20
2018-03-22T03:50:27.757Z,84.60
2018-03-22T03:52:57.454Z,84.90
2018-03-22T03:58:04.067Z,85.70
2018-03-22T04:06:22.855Z,86.90
2018-03-22T04:09:04.931Z,87.20
2018-03-22T04:11:34.513Z,87.50
2018-03-22T04:14:07.080Z,87.80
2018-03-22T04:16:43.825Z,88.30
2018-03-22T04:19:20.530Z,88.30
2018-03-22T04:21:55.051Z,89.30
2018-03-22T04:24:27.656Z,89.20
2018-03-22T04:26:58.488Z,89.40
2018-03-22T04:29:29.331Z,89.60
2018-03-22T04:31:59.588Z,89.60
2018-03-22T04:34:30.482Z,89.90
2018-03-22T04:37:04.763Z,90.00
2018-03-22T04:39:40.759Z,90.20
2018-03-22T04:42:16.754Z,90.30
2018-03-22T04:44:50.292Z,90.40
2018-03-22T04:47:22.376Z,91.00
2018-03-22T04:49:53.903Z,90.80
2018-03-22T04:52:24.077Z,91.00
2018-03-22T04:54:54.981Z,91.30
2018-03-22T04:57:26.159Z,91.50
2018-03-22T04:59:55.641Z,91.50
2018-03-22T05:02:25.022Z,91.60
2018-03-22T05:04:54.580Z,91.70
2018-03-22T05:07:23.957Z,91.80
2018-03-22T05:09:53.441Z,91.90
2018-03-22T05:12:22.916Z,92.00
2018-03-22T05:14:52.351Z,92.10
2018-03-22T05:17:21.715Z,92.40
2018-03-22T05:19:51.260Z,92.50
2018-03-22T05:22:20.869Z,92.60
2018-03-22T05:24:50.350Z,92.60
2018-03-22T05:30:42.254Z,92.90
2018-03-22T05:33:11.922Z,93.30
2018-03-22T05:35:41.532Z,93.40
2018-03-22T05:38:11.465Z,93.50
2018-03-22T05:40:40.895Z,93.60
2018-03-22T05:46:42.601Z,94.40
2018-03-22T05:49:12.051Z,94.40
2018-03-22T05:51:41.562Z,94.70
2018-03-22T05:54:12.059Z,94.90
2018-03-22T05:56:41.548Z,95.10
2018-03-22T05:59:11.063Z,95.50
2018-03-22T06:01:41.223Z,95.80
2018-03-22T06:04:10.598Z,95.80
2018-03-22T06:06:47.292Z,96.00
2018-03-22T06:09:56.845Z,96.10
2018-03-22T06:12:26.392Z,96.30
2018-03-22T06:14:55.957Z,96.50
2018-03-22T06:17:25.609Z,96.60
2018-03-22T06:19:57.954Z,96.60
2018-03-22T06:22:27.505Z,96.80
2018-03-22T06:24:57.867Z,96.80
2018-03-22T06:27:27.369Z,96.90
2018-03-22T06:29:57.210Z,97.00
2018-03-22T06:32:26.926Z,97.10
2018-03-22T06:34:56.589Z,97.10
2018-03-22T06:37:26.923Z,97.10
2018-03-22T06:39:56.631Z,97.10
2018-03-22T06:42:27.095Z,97.20
2018-03-22T06:44:58.820Z,97.20
2018-03-22T06:53:36.471Z,97.50
2018-03-22T06:56:06.755Z,97.50
2018-03-22T06:58:44.002Z,97.70
2018-03-22T07:01:14.544Z,98.00
2018-03-22T07:04:02.116Z,98.00
2018-03-22T07:06:31.638Z,98.00
2018-03-22T07:09:02.060Z,98.30
2018-03-22T07:11:33.317Z,98.30
2018-03-22T07:14:02.985Z,98.30
2018-03-22T07:16:32.579Z,98.60
2018-03-22T07:19:02.028Z,98.90
2018-03-22T07:21:31.657Z,99.00
2018-03-22T07:24:01.117Z,99.60
2018-03-22T07:26:30.746Z,99.90
2018-03-22T07:29:00.633Z,99.90
2018-03-22T07:31:31.186Z,99.90
2018-03-22T07:34:00.765Z,99.90
2018-03-22T07:36:30.364Z,99.90
2018-03-22T07:39:04.621Z,99.90
2018-03-22T07:41:34.332Z,99.90
2018-03-22T07:44:09.125Z,99.90
2018-03-22T07:46:38.740Z,99.90
2018-03-22T07:49:37.047Z,99.90
2018-03-22T07:52:06.783Z,99.90
2018-03-22T07:54:36.374Z,99.90
2018-03-22T07:57:05.698Z,99.90
2018-03-22T07:59:35.536Z,99.90
2018-03-22T08:02:05.176Z,99.90
2018-03-22T08:04:59.543Z,99.90
2018-03-22T08:07:30.097Z,99.90
2018-03-22T08:09:59.793Z,99.90
2018-03-22T08:12:29.333Z,99.90
2018-03-22T08:14:58.877Z,99.90
2018-03-22T08:17:28.455Z,99.90
2018-03-22T08:19:58.785Z,99.90
2018-03-22T08:22:28.523Z,99.90
2018-03-22T08:24:58.218Z,99.90
2018-03-22T08:27:28.043Z,99.90
2018-03-22T08:29:57.937Z,99.90
2018-03-22T08:32:29.049Z,99.90
2018-03-22T08:34:58.855Z,99.90
2018-03-22T08:37:30.177Z,99.90
2018-03-22T08:43:32.556Z,99.90
2018-03-22T08:46:01.778Z,99.90
2018-03-22T08:48:31.934Z,99.90
2018-03-22T08:51:01.782Z,99.90
2018-03-22T08:53:31.765Z,99.90
2018-03-22T08:56:01.007Z,99.90
2018-03-22T08:58:31.150Z,99.90
2018-03-22T09:01:00.786Z,99.90
2018-03-22T09:03:30.972Z,99.90
2018-03-22T09:06:40.257Z,99.90
2018-03-22T09:09:09.536Z,99.90
2018-03-22T09:11:38.919Z,99.90
2018-03-22T09:14:08.446Z,99.90
2018-03-22T09:16:37.936Z,99.90
2018-03-22T09:19:07.285Z,99.90
2018-03-22T09:21:36.790Z,99.90
2018-03-22T09:24:06.438Z,99.90
2018-03-22T09:27:07.097Z,99.90
2018-03-22T09:29:36.430Z,99.90
2018-03-22T09:32:05.741Z,99.90
2018-03-22T09:34:35.064Z,99.90
2018-03-22T09:37:04.353Z,99.90
2018-03-22T09:39:33.666Z,99.90
2018-03-22T09:42:03.814Z,99.90
2018-03-22T09:44:35.098Z,99.90
2018-03-22T09:47:04.522Z,99.90
2018-03-22T09:49:34.607Z,99.90
2018-03-22T09:52:04.794Z,99.90
2018-03-22T09:54:34.125Z,99.90
2018-03-22T09:57:04.487Z,99.90
2018-03-22T09:59:33.834Z,99.90
2018-03-22T10:02:03.170Z,99.90
2018-03-22T10:04:32.513Z,99.90
2018-03-22T10:07:02.020Z,99.90
2018-03-22T10:09:31.417Z,99.90
2018-03-22T10:12:00.922Z,99.90
2018-03-22T10:14:32.516Z,99.90
2018-03-22T10:17:01.886Z,99.90
2018-03-22T10:19:32.020Z,99.90
2018-03-22T10:22:01.548Z,99.90
2018-03-22T10:24:31.956Z,99.90
2018-03-22T10:27:01.245Z,99.90
2018-03-22T10:29:31.977Z,99.90
2018-03-22T10:32:01.418Z,99.90
2018-03-22T10:34:33.695Z,99.90
2018-03-22T10:37:04.058Z,99.90
2018-03-22T10:39:34.140Z,99.90
2018-03-22T10:42:03.461Z,99.90
2018-03-22T10:44:32.828Z,99.90
2018-03-22T10:47:02.262Z,99.90
2018-03-22T10:49:31.821Z,99.90
2018-03-22T10:52:01.251Z,99.90
2018-03-22T10:54:31.693Z,99.90
2018-03-22T10:57:00.993Z,99.90
2018-03-22T10:59:30.284Z,99.90
2018-03-22T11:02:01.237Z,99.90
2018-03-22T11:04:30.533Z,99.90
2018-03-22T11:07:00.043Z,99.90
2018-03-22T11:09:30.164Z,99.90
2018-03-22T11:11:59.454Z,99.90
2018-03-22T11:14:29.579Z,99.90
2018-03-22T11:16:58.894Z,99.90
2018-03-22T11:19:28.186Z,99.90
2018-03-22T11:21:57.585Z,99.90
2018-03-22T11:24:26.890Z,99.90
2018-03-22T11:26:56.391Z,99.90
2018-03-22T11:29:25.816Z,99.90
2018-03-22T11:35:26.893Z,99.90
2018-03-22T11:37:56.629Z,99.90
2018-03-22T11:40:27.528Z,99.90
2018-03-22T11:42:57.050Z,99.90
2018-03-22T11:45:28.163Z,99.90
2018-03-22T11:47:58.142Z,99.90
2018-03-22T11:50:27.675Z,99.90
2018-03-22T11:52:57.220Z,99.90
2018-03-22T11:55:26.863Z,99.90
2018-03-22T11:57:57.273Z,99.90
2018-03-22T12:00:26.929Z,99.90
2018-03-22T12:02:56.694Z,99.90
2018-03-22T12:05:26.289Z,99.90
2018-03-22T12:07:55.904Z,99.90
2018-03-22T12:10:25.456Z,99.90
2018-03-22T12:12:56.694Z,99.90
2018-03-22T12:15:26.245Z,99.90
2018-03-22T12:17:55.806Z,99.90
2018-03-22T12:20:25.509Z,99.90
2018-03-22T12:22:55.118Z,99.90
2018-03-22T12:25:24.609Z,99.90
2018-03-22T12:27:55.023Z,99.90
2018-03-22T12:30:24.533Z,99.90
2018-03-22T12:32:54.361Z,99.90
2018-03-22T12:35:25.149Z,99.90
2018-03-22T12:37:56.209Z,99.90
2018-03-22T12:40:25.869Z,99.90
2018-03-22T12:42:55.542Z,99.90
2018-03-22T12:45:25.255Z,99.90
2018-03-22T12:47:55.067Z,99.90
2018-03-22T12:50:48.021Z,99.60
2018-03-22T12:53:17.883Z,99.00
2018-03-22T12:55:47.568Z,98.30
2018-03-22T12:58:17.114Z,97.70
2018-03-22T13:00:46.766Z,97.40
2018-03-22T13:03:17.492Z,96.10
2018-03-22T13:05:47.166Z,96.10
2018-03-22T13:08:16.900Z,95.50
2018-03-22T13:10:46.661Z,95.20
2018-03-22T13:16:37.183Z,94.20
2018-03-22T13:19:06.515Z,93.60
2018-03-22T13:21:37.286Z,92.90
2018-03-22T13:27:29.239Z,92.00
2018-03-22T13:29:58.606Z,91.80
2018-03-22T13:32:28.803Z,90.90
2018-03-22T13:35:01.208Z,90.30
2018-03-22T13:37:30.653Z,90.00
2018-03-22T13:39:59.975Z,88.10
2018-03-22T13:42:29.264Z,86.20
2018-03-22T13:48:32.368Z,84.90
2018-03-22T13:51:01.828Z,84.70
2018-03-22T13:53:31.401Z,83.90
2018-03-22T13:56:00.817Z,83.60
2018-03-22T13:58:30.198Z,81.20
2018-03-22T14:00:59.726Z,80.30
2018-03-22T14:03:29.210Z,78.80
2018-03-22T14:05:59.661Z,79.90
2018-03-22T14:08:29.492Z,79.70
2018-03-22T14:10:59.884Z,79.60
2018-03-22T14:16:04.818Z,76.20
2018-03-22T14:18:34.556Z,76.00
2018-03-22T14:21:04.100Z,75.40
2018-03-22T14:23:35.072Z,73.50
2018-03-22T14:29:25.948Z,73.40
2018-03-22T14:31:55.714Z,69.20
2018-03-22T14:34:25.440Z,69.40
2018-03-22T14:37:01.956Z,67.70
2018-03-22T14:39:32.149Z,69.10
2018-03-22T14:42:01.526Z,69.00
2018-03-22T14:44:30.746Z,67.20
2018-03-22T14:47:00.052Z,65.50
2018-03-22T14:52:50.158Z,64.10
2018-03-22T14:55:19.514Z,64.90
2018-03-22T14:57:49.882Z,61.20
2018-03-22T15:00:19.150Z,61.20
2018-03-22T15:02:48.455Z,60.00
2018-03-22T15:05:17.754Z,61.20
2018-03-22T15:07:47.210Z,59.60
2018-03-22T15:10:16.390Z,58.90
2018-03-22T15:12:46.130Z,58.00
2018-03-22T15:15:15.290Z,57.10
2018-03-22T15:17:44.601Z,56.80
2018-03-22T15:20:13.989Z,57.70
2018-03-22T15:22:43.253Z,56.90
2018-03-22T15:25:12.513Z,55.70
2018-03-22T15:27:41.814Z,54.30
2018-03-22T15:30:15.964Z,54.40
2018-03-22T15:32:45.368Z,53.80
2018-03-22T15:35:15.299Z,54.40
2018-03-22T15:37:44.899Z,53.50
2018-03-22T15:40:16.351Z,53.80
2018-03-22T15:42:45.750Z,53.40
2018-03-22T15:45:15.001Z,53.20
2018-03-22T15:47:44.234Z,50.60
2018-03-22T15:50:13.566Z,48.60
2018-03-22T15:52:43.004Z,49.20
2018-03-22T15:55:12.343Z,49.30
2018-03-22T15:57:41.721Z,50.30
2018-03-22T16:00:10.986Z,49.90
2018-03-22T16:02:40.377Z,49.10
2018-03-22T16:05:09.631Z,50.60
2018-03-22T16:07:41.402Z,51.40
2018-03-22T16:10:12.645Z,50.20
2018-03-22T16:12:41.921Z,49.30
2018-03-22T16:15:12.295Z,49.70
2018-03-22T16:17:41.744Z,49.20
2018-03-22T16:20:10.949Z,49.20
2018-03-22T16:22:41.360Z,48.30
2018-03-22T16:25:16.799Z,49.00
2018-03-22T16:27:46.642Z,48.40
2018-03-22T16:30:15.883Z,50.30
2018-03-22T16:32:46.906Z,48.50
2018-03-22T16:35:17.106Z,47.10
2018-03-22T16:37:46.375Z,47.00
2018-03-22T16:40:16.998Z,47.30
2018-03-22T16:42:46.806Z,47.20
2018-03-22T16:45:19.586Z,46.80
2018-03-22T16:47:53.283Z,45.70
2018-03-22T16:50:23.903Z,45.70
2018-03-22T16:52:54.726Z,45.30
2018-03-22T16:55:25.440Z,44.90
2018-03-22T16:57:54.727Z,44.70
2018-03-22T17:00:28.806Z,45.20
2018-03-22T17:03:02.112Z,45.30
2018-03-22T17:05:34.397Z,45.50
2018-03-22T17:08:04.487Z,44.70
2018-03-22T17:10:33.777Z,45.00
2018-03-22T17:13:02.975Z,45.20
2018-03-22T17:15:40.610Z,42.80
2018-03-22T17:21:43.548Z,42.40
2018-03-22T17:24:13.123Z,43.70
2018-03-22T17:26:43.798Z,43.00
2018-03-22T17:29:13.402Z,42.80
2018-03-22T17:31:44.478Z,41.50
2018-03-22T17:34:16.198Z,41.60
2018-03-22T17:36:45.978Z,42.00
2018-03-22T17:39:16.437Z,42.30
2018-03-22T17:41:46.230Z,42.40
2018-03-22T17:44:16.506Z,42.90
2018-03-22T17:46:53.226Z,42.90
2018-03-22T17:49:23.607Z,40.50
2018-03-22T17:51:53.396Z,41.40
2018-03-22T17:54:22.967Z,41.10
2018-03-22T17:56:53.307Z,40.40
2018-03-22T17:59:42.187Z,39.60
2018-03-22T18:02:14.438Z,37.70
2018-03-22T18:04:49.081Z,36.30
2018-03-22T18:07:22.000Z,36.80
2018-03-22T18:09:51.667Z,34.10
2018-03-22T18:15:01.301Z,33.40
2018-03-22T18:17:31.030Z,33.60
2018-03-22T18:20:02.613Z,32.60
2018-03-22T18:22:37.375Z,32.30
2018-03-22T18:25:07.802Z,31.20
2018-03-22T18:27:38.590Z,32.30
2018-03-22T18:30:08.161Z,33.20
2018-03-22T18:32:38.776Z,32.70
2018-03-22T18:35:13.988Z,32.70
2018-03-22T18:40:30.158Z,32.30
2018-03-22T18:43:01.646Z,32.70
2018-03-22T18:45:31.844Z,32.00
2018-03-22T18:48:01.295Z,32.50
2018-03-22T18:50:38.562Z,32.80
2018-03-22T18:58:19.599Z,32.60
2018-03-22T19:03:24.411Z,33.50
2018-03-22T19:05:54.843Z,34.30
2018-03-22T19:08:24.408Z,34.80
2018-03-22T19:10:54.057Z,35.10
2018-03-22T19:13:24.776Z,35.20
2018-03-22T19:15:54.289Z,35.80
2018-03-22T19:18:24.008Z,36.30
2018-03-22T19:20:54.310Z,36.00
2018-03-22T19:23:23.936Z,36.00
2018-03-22T19:25:53.370Z,38.60
2018-03-22T19:28:22.895Z,40.90
2018-03-22T19:30:54.853Z,42.20
2018-03-22T19:33:26.011Z,41.30
2018-03-22T19:35:59.599Z,41.00
2018-03-22T19:38:29.113Z,41.50
2018-03-22T19:40:58.800Z,42.00
2018-03-22T19:43:28.293Z,41.20
2018-03-22T19:45:58.442Z,39.90
2018-03-22T19:51:49.421Z,38.20
2018-03-22T19:54:20.059Z,38.00
2018-03-22T19:59:28.171Z,38.80
2018-03-22T20:01:59.431Z,41.00
2018-03-22T20:04:28.973Z,39.60
2018-03-22T20:06:59.746Z,38.10
2018-03-22T20:09:30.048Z,35.20
2018-03-22T20:12:00.498Z,36.90
2018-03-22T20:14:34.863Z,36.90
2018-03-22T20:17:13.257Z,38.60
2018-03-22T20:19:44.070Z,37.00
2018-03-22T20:22:16.488Z,39.10
2018-03-22T20:24:46.078Z,40.40
2018-03-22T20:27:15.614Z,40.30
2018-03-22T20:29:46.146Z,38.60
2018-03-22T20:32:18.180Z,39.80
2018-03-22T20:34:48.343Z,36.50
2018-03-22T20:37:19.445Z,37.90
2018-03-22T20:39:51.977Z,37.90
2018-03-22T20:42:39.058Z,37.90
2018-03-22T20:45:13.611Z,37.90
2018-03-22T20:47:51.698Z,37.20
2018-03-22T20:50:21.248Z,38.30
2018-03-22T20:52:57.566Z,38.10
2018-03-22T20:55:35.003Z,38.30
2018-03-22T20:58:08.074Z,38.10
2018-03-22T21:00:40.604Z,37.60
2018-03-22T21:06:16.267Z,38.70
2018-03-22T21:13:30.484Z,39.40
2018-03-22T21:16:00.766Z,39.30
2018-03-22T21:18:31.615Z,39.00
2018-03-22T21:21:01.506Z,39.70
2018-03-22T21:23:32.230Z,40.90
2018-03-22T21:26:01.796Z,41.30
2018-03-22T21:28:31.333Z,41.30
2018-03-22T21:31:00.897Z,40.90
2018-03-22T21:33:32.843Z,40.30
2018-03-22T21:36:02.407Z,41.00
2018-03-22T21:38:31.931Z,41.40
2018-03-22T21:41:01.423Z,39.80
2018-03-22T21:43:32.537Z,41.10
2018-03-22T21:46:02.033Z,40.30
2018-03-22T21:48:31.534Z,40.70
2018-03-22T21:51:03.066Z,39.60
2018-03-22T21:53:33.326Z,42.30
2018-03-22T21:56:02.847Z,42.30
2018-03-22T21:58:32.741Z,42.50
2018-03-22T22:01:02.256Z,41.00
2018-03-22T22:03:33.465Z,39.90
2018-03-22T22:09:24.356Z,38.90
2018-03-22T22:11:54.065Z,41.10
2018-03-22T22:14:24.946Z,42.80
2018-03-22T22:16:54.676Z,42.70
2018-03-22T22:19:24.344Z,41.40
2018-03-22T22:21:55.525Z,41.00
2018-03-22T22:24:25.055Z,41.20
2018-03-22T22:26:54.669Z,41.00
2018-03-22T22:29:24.150Z,41.40
2018-03-22T22:31:54.109Z,40.90
2018-03-22T22:34:24.477Z,40.70
2018-03-22T22:36:56.354Z,42.60
2018-03-22T22:39:25.997Z,42.60
2018-03-22T22:41:55.538Z,42.50
2018-03-22T22:44:26.861Z,42.30
2018-03-22T22:46:56.606Z,42.30
2018-03-22T22:49:26.132Z,42.00
2018-03-22T22:51:56.089Z,41.40
2018-03-22T22:54:27.689Z,42.60
2018-03-22T22:56:58.656Z,43.70
2018-03-22T22:59:29.572Z,44.20
2018-03-22T23:01:59.930Z,45.40
2018-03-22T23:04:30.349Z,45.40
2018-03-22T23:07:00.465Z,45.80
2018-03-22T23:09:30.726Z,46.20
2018-03-22T23:12:00.347Z,46.20
2018-03-22T23:14:30.645Z,46.20
2018-03-22T23:17:00.390Z,45.40
2018-03-22T23:19:29.848Z,43.70
2018-03-22T23:21:59.391Z,44.40
2018-03-22T23:24:28.882Z,43.80
2018-03-22T23:26:59.383Z,46.00
2018-03-22T23:29:28.916Z,46.70
2018-03-22T23:31:58.577Z,46.60
2018-03-22T23:34:38.868Z,46.70
2018-03-22T23:37:28.702Z,46.50
2018-03-22T23:40:14.784Z,46.30
2018-03-22T23:43:25.152Z,47.10
2018-03-22T23:46:04.970Z,46.40
2018-03-22T23:48:35.387Z,45.20
2018-03-22T23:51:05.030Z,45.60
2018-03-22T23:53:35.423Z,45.20
2018-03-22T23:56:07.562Z,47.00
2018-03-22T23:58:37.077Z,46.90
